sensor_id;sensor_type;location;lat;lon;timestamp;pressure;altitude;pressure_sealevel;temperature;humidity
69528;BME280;57136;51.986;4.468;2022-07-17T00:01:11;102901.06;;;15.06;92.63
69528;BME280;57136;51.986;4.468;2022-07-17T00:03:37;102901.88;;;15.02;92.67
69528;BME280;57136;51.986;4.468;2022-07-17T00:06:02;102901.00;;;15.01;93.11
69528;BME280;57136;51.986;4.468;2022-07-17T00:08:28;102897.41;;;14.97;93.70
69528;BME280;57136;51.986;4.468;2022-07-17T00:10:56;102891.28;;;14.97;94.06
69528;BME280;57136;51.986;4.468;2022-07-17T00:13:21;102888.59;;;14.95;94.08
69528;BME280;57136;51.986;4.468;2022-07-17T00:15:47;102891.28;;;14.97;93.34
69528;BME280;57136;51.986;4.468;2022-07-17T00:18:12;102895.63;;;14.96;93.26
69528;BME280;57136;51.986;4.468;2022-07-17T00:20:37;102898.31;;;15.00;92.34
69528;BME280;57136;51.986;4.468;2022-07-17T00:23:03;102901.00;;;15.01;91.75
69528;BME280;57136;51.986;4.468;2022-07-17T00:25:29;102900.03;;;14.97;91.74
69528;BME280;57136;51.986;4.468;2022-07-17T00:27:54;102903.44;;;14.93;92.28
69528;BME280;57136;51.986;4.468;2022-07-17T00:30:20;102891.13;;;14.89;93.19
69528;BME280;57136;51.986;4.468;2022-07-17T00:32:46;102894.56;;;14.87;92.85
69528;BME280;57136;51.986;4.468;2022-07-17T00:35:12;102890.13;;;14.82;92.92
69528;BME280;57136;51.986;4.468;2022-07-17T00:37:42;102886.56;;;14.79;92.83
69528;BME280;57136;51.986;4.468;2022-07-17T00:40:10;102882.25;;;14.82;93.05
69528;BME280;57136;51.986;4.468;2022-07-17T00:42:39;102876.06;;;14.79;93.06
69528;BME280;57136;51.986;4.468;2022-07-17T00:45:05;102891.81;;;14.80;92.94
69528;BME280;57136;51.986;4.468;2022-07-17T00:47:30;102884.88;;;14.82;92.83
69528;BME280;57136;51.986;4.468;2022-07-17T00:49:55;102882.16;;;14.78;93.04
69528;BME280;57136;51.986;4.468;2022-07-17T00:52:21;102882.88;;;14.71;93.76
69528;BME280;57136;51.986;4.468;2022-07-17T00:54:46;102873.06;;;14.62;94.18
69528;BME280;57136;51.986;4.468;2022-07-17T00:57:14;102870.28;;;14.54;94.63
69528;BME280;57136;51.986;4.468;2022-07-17T00:59:40;102856.13;;;14.46;94.89
69528;BME280;57136;51.986;4.468;2022-07-17T01:02:08;102845.56;;;14.43;95.88
69528;BME280;57136;51.986;4.468;2022-07-17T01:04:35;102844.63;;;14.39;96.40
69528;BME280;57136;51.986;4.468;2022-07-17T01:07:04;102849.81;;;14.37;96.36
69528;BME280;57136;51.986;4.468;2022-07-17T01:09:32;102841.06;;;14.37;97.12
69528;BME280;57136;51.986;4.468;2022-07-17T01:11:58;102854.34;;;14.45;96.01
69528;BME280;57136;51.986;4.468;2022-07-17T01:14:25;102858.03;;;14.53;95.36
69528;BME280;57136;51.986;4.468;2022-07-17T01:16:51;102851.06;;;14.55;96.32
69528;BME280;57136;51.986;4.468;2022-07-17T01:19:17;102866.88;;;14.58;95.23
69528;BME280;57136;51.986;4.468;2022-07-17T01:21:44;102857.13;;;14.52;95.54
69528;BME280;57136;51.986;4.468;2022-07-17T01:24:11;102859.59;;;14.45;96.00
69528;BME280;57136;51.986;4.468;2022-07-17T01:26:36;102859.50;;;14.40;96.49
69528;BME280;57136;51.986;4.468;2022-07-17T01:29:03;102870.00;;;14.40;96.41
69528;BME280;57136;51.986;4.468;2022-07-17T01:31:29;102866.38;;;14.35;97.17
69528;BME280;57136;51.986;4.468;2022-07-17T01:33:54;102867.94;;;14.27;97.79
69528;BME280;57136;51.986;4.468;2022-07-17T01:36:24;102863.44;;;14.19;97.37
69528;BME280;57136;51.986;4.468;2022-07-17T01:38:50;102855.38;;;14.10;98.38
69528;BME280;57136;51.986;4.468;2022-07-17T01:41:15;102852.66;;;14.05;98.76
69528;BME280;57136;51.986;4.468;2022-07-17T01:43:41;102855.16;;;14.01;99.06
69528;BME280;57136;51.986;4.468;2022-07-17T01:46:06;102862.16;;;14.00;99.12
69528;BME280;57136;51.986;4.468;2022-07-17T01:48:32;102849.84;;;13.98;99.49
69528;BME280;57136;51.986;4.468;2022-07-17T01:50:57;102855.84;;;13.92;100.00
69528;BME280;57136;51.986;4.468;2022-07-17T01:53:23;102850.50;;;13.89;99.93
69528;BME280;57136;51.986;4.468;2022-07-17T01:55:48;102857.47;;;13.87;100.00
69528;BME280;57136;51.986;4.468;2022-07-17T01:58:14;102863.47;;;13.83;100.00
69528;BME280;57136;51.986;4.468;2022-07-17T02:00:40;102854.66;;;13.79;100.00
69528;BME280;57136;51.986;4.468;2022-07-17T02:03:05;102861.59;;;13.77;100.00
69528;BME280;57136;51.986;4.468;2022-07-17T02:05:31;102855.50;;;13.76;100.00
69528;BME280;57136;51.986;4.468;2022-07-17T02:07:56;102859.88;;;13.77;100.00
69528;BME280;57136;51.986;4.468;2022-07-17T02:10:22;102856.34;;;13.75;100.00
69528;BME280;57136;51.986;4.468;2022-07-17T02:12:48;102851.03;;;13.74;100.00
69528;BME280;57136;51.986;4.468;2022-07-17T02:15:13;102846.66;;;13.73;100.00
69528;BME280;57136;51.986;4.468;2022-07-17T02:17:40;102857.19;;;13.74;100.00
69528;BME280;57136;51.986;4.468;2022-07-17T02:20:07;102848.44;;;13.74;100.00
69528;BME280;57136;51.986;4.468;2022-07-17T02:22:33;102858.13;;;13.78;100.00
69528;BME280;57136;51.986;4.468;2022-07-17T02:24:58;102854.69;;;13.81;100.00
69528;BME280;57136;51.986;4.468;2022-07-17T02:27:24;102849.44;;;13.79;100.00
69528;BME280;57136;51.986;4.468;2022-07-17T02:29:49;102852.91;;;13.78;100.00
69528;BME280;57136;51.986;4.468;2022-07-17T02:32:14;102866.81;;;13.75;100.00
69528;BME280;57136;51.986;4.468;2022-07-17T02:34:40;102867.63;;;13.73;100.00
69528;BME280;57136;51.986;4.468;2022-07-17T02:37:06;102862.28;;;13.70;100.00
69528;BME280;57136;51.986;4.468;2022-07-17T02:39:31;102867.47;;;13.67;100.00
69528;BME280;57136;51.986;4.468;2022-07-17T02:41:56;102878.03;;;13.70;100.00
69528;BME280;57136;51.986;4.468;2022-07-17T02:44:22;102884.94;;;13.68;100.00
69528;BME280;57136;51.986;4.468;2022-07-17T02:46:47;102884.19;;;13.72;100.00
69528;BME280;57136;51.986;4.468;2022-07-17T02:49:12;102892.19;;;13.76;100.00
69528;BME280;57136;51.986;4.468;2022-07-17T02:51:38;102888.72;;;13.79;100.00
69528;BME280;57136;51.986;4.468;2022-07-17T02:54:03;102893.94;;;13.77;100.00
69528;BME280;57136;51.986;4.468;2022-07-17T02:56:28;102886.00;;;13.74;100.00
69528;BME280;57136;51.986;4.468;2022-07-17T02:58:53;102894.66;;;13.72;100.00
69528;BME280;57136;51.986;4.468;2022-07-17T03:01:19;102900.75;;;13.71;100.00
69528;BME280;57136;51.986;4.468;2022-07-17T03:03:45;102899.81;;;13.67;100.00
69528;BME280;57136;51.986;4.468;2022-07-17T03:06:11;102882.28;;;13.65;100.00
69528;BME280;57136;51.986;4.468;2022-07-17T03:08:36;102881.38;;;13.62;100.00
69528;BME280;57136;51.986;4.468;2022-07-17T03:11:01;102882.22;;;13.61;100.00
69528;BME280;57136;51.986;4.468;2022-07-17T03:13:27;102886.53;;;13.59;100.00
69528;BME280;57136;51.986;4.468;2022-07-17T03:15:52;102882.97;;;13.57;100.00
69528;BME280;57136;51.986;4.468;2022-07-17T03:18:17;102887.31;;;13.57;100.00
69528;BME280;57136;51.986;4.468;2022-07-17T03:20:43;102885.50;;;13.54;100.00
69528;BME280;57136;51.986;4.468;2022-07-17T03:23:08;102897.66;;;13.51;100.00
69528;BME280;57136;51.986;4.468;2022-07-17T03:25:33;102897.59;;;13.47;100.00
69528;BME280;57136;51.986;4.468;2022-07-17T03:27:59;102892.34;;;13.47;100.00
69528;BME280;57136;51.986;4.468;2022-07-17T03:30:24;102892.28;;;13.46;100.00
69528;BME280;57136;51.986;4.468;2022-07-17T03:32:49;102895.81;;;13.46;100.00
69528;BME280;57136;51.986;4.468;2022-07-17T03:35:15;102888.78;;;13.45;100.00
69528;BME280;57136;51.986;4.468;2022-07-17T03:37:41;102892.25;;;13.44;100.00
69528;BME280;57136;51.986;4.468;2022-07-17T03:40:09;102887.91;;;13.45;100.00
69528;BME280;57136;51.986;4.468;2022-07-17T03:42:34;102886.13;;;13.44;100.00
69528;BME280;57136;51.986;4.468;2022-07-17T03:44:59;102881.78;;;13.44;100.00
69528;BME280;57136;51.986;4.468;2022-07-17T03:47:25;102879.09;;;13.43;100.00
69528;BME280;57136;51.986;4.468;2022-07-17T03:49:50;102881.72;;;13.43;100.00
69528;BME280;57136;51.986;4.468;2022-07-17T03:52:15;102878.53;;;13.55;100.00
69528;BME280;57136;51.986;4.468;2022-07-17T03:54:41;102879.63;;;13.63;100.00
69528;BME280;57136;51.986;4.468;2022-07-17T03:57:06;102873.34;;;13.56;100.00
69528;BME280;57136;51.986;4.468;2022-07-17T03:59:31;102882.84;;;13.53;100.00
69528;BME280;57136;51.986;4.468;2022-07-17T04:01:57;102888.91;;;13.50;100.00
69528;BME280;57136;51.986;4.468;2022-07-17T04:04:22;102897.88;;;13.60;100.00
69528;BME280;57136;51.986;4.468;2022-07-17T04:06:47;102893.47;;;13.57;100.00
69528;BME280;57136;51.986;4.468;2022-07-17T04:09:13;102894.31;;;13.56;100.00
69528;BME280;57136;51.986;4.468;2022-07-17T04:11:38;102902.25;;;13.61;100.00
69528;BME280;57136;51.986;4.468;2022-07-17T04:14:03;102907.56;;;13.62;100.00
69528;BME280;57136;51.986;4.468;2022-07-17T04:16:29;102914.63;;;13.67;100.00
69528;BME280;57136;51.986;4.468;2022-07-17T04:18:54;102911.31;;;13.74;100.00
69528;BME280;57136;51.986;4.468;2022-07-17T04:21:19;102898.25;;;13.75;100.00
69528;BME280;57136;51.986;4.468;2022-07-17T04:23:45;102891.38;;;13.81;100.00
69528;BME280;57136;51.986;4.468;2022-07-17T04:26:10;102897.59;;;13.84;100.00
69528;BME280;57136;51.986;4.468;2022-07-17T04:28:35;102909.09;;;13.91;100.00
69528;BME280;57136;51.986;4.468;2022-07-17T04:31:01;102908.41;;;13.98;100.00
69528;BME280;57136;51.986;4.468;2022-07-17T04:33:27;102911.19;;;14.04;100.00
69528;BME280;57136;51.986;4.468;2022-07-17T04:35:52;102905.19;;;14.10;100.00
69528;BME280;57136;51.986;4.468;2022-07-17T04:38:17;102900.09;;;14.18;100.00
69528;BME280;57136;51.986;4.468;2022-07-17T04:40:43;102893.38;;;14.29;100.00
69528;BME280;57136;51.986;4.468;2022-07-17T04:43:08;102896.19;;;14.38;100.00
69528;BME280;57136;51.986;4.468;2022-07-17T04:45:34;102891.13;;;14.48;100.00
69528;BME280;57136;51.986;4.468;2022-07-17T04:47:59;102895.84;;;14.64;100.00
69528;BME280;57136;51.986;4.468;2022-07-17T04:50:25;102895.16;;;14.72;100.00
69528;BME280;57136;51.986;4.468;2022-07-17T04:52:50;102892.78;;;14.84;100.00
69528;BME280;57136;51.986;4.468;2022-07-17T04:55:16;102891.28;;;14.97;100.00
69528;BME280;57136;51.986;4.468;2022-07-17T04:57:41;102888.78;;;15.03;100.00
69528;BME280;57136;51.986;4.468;2022-07-17T05:00:08;102891.63;;;15.16;100.00
69528;BME280;57136;51.986;4.468;2022-07-17T05:02:34;102893.63;;;15.31;100.00
69528;BME280;57136;51.986;4.468;2022-07-17T05:05:00;102903.56;;;15.47;100.00
69528;BME280;57136;51.986;4.468;2022-07-17T05:07:26;102889.75;;;15.59;100.00
69528;BME280;57136;51.986;4.468;2022-07-17T05:09:52;102884.66;;;15.71;100.00
69528;BME280;57136;51.986;4.468;2022-07-17T05:12:17;102885.97;;;15.97;100.00
69528;BME280;57136;51.986;4.468;2022-07-17T05:14:42;102880.91;;;16.11;98.70
69528;BME280;57136;51.986;4.468;2022-07-17T05:17:08;102888.19;;;16.30;97.18
69528;BME280;57136;51.986;4.468;2022-07-17T05:19:33;102893.81;;;16.57;96.41
69528;BME280;57136;51.986;4.468;2022-07-17T05:22:00;102892.94;;;16.59;93.84
69528;BME280;57136;51.986;4.468;2022-07-17T05:24:25;102893.00;;;16.64;92.42
69528;BME280;57136;51.986;4.468;2022-07-17T05:26:50;102900.00;;;16.63;90.06
69528;BME280;57136;51.986;4.468;2022-07-17T05:29:16;102896.44;;;16.58;88.17
69528;BME280;57136;51.986;4.468;2022-07-17T05:31:41;102900.84;;;16.61;87.95
69528;BME280;57136;51.986;4.468;2022-07-17T05:34:06;102899.97;;;16.62;86.74
69528;BME280;57136;51.986;4.468;2022-07-17T05:36:32;102910.63;;;16.71;86.24
69528;BME280;57136;51.986;4.468;2022-07-17T05:38:57;102902.69;;;16.67;86.10
69528;BME280;57136;51.986;4.468;2022-07-17T05:41:22;102892.44;;;16.91;85.77
69528;BME280;57136;51.986;4.468;2022-07-17T05:43:48;102899.69;;;17.10;84.91
69528;BME280;57136;51.986;4.468;2022-07-17T05:46:13;102899.94;;;17.39;82.20
69528;BME280;57136;51.986;4.468;2022-07-17T05:48:38;102904.16;;;17.20;80.86
69528;BME280;57136;51.986;4.468;2022-07-17T05:51:03;102905.50;;;17.75;77.83
69528;BME280;57136;51.986;4.468;2022-07-17T05:53:29;102910.91;;;17.90;77.33
69528;BME280;57136;51.986;4.468;2022-07-17T05:55:54;102906.59;;;18.00;77.07
69528;BME280;57136;51.986;4.468;2022-07-17T05:58:20;102911.97;;;18.16;75.60
69528;BME280;57136;51.986;4.468;2022-07-17T06:00:45;102911.13;;;18.27;74.98
69528;BME280;57136;51.986;4.468;2022-07-17T06:03:11;102913.72;;;18.10;75.51
69528;BME280;57136;51.986;4.468;2022-07-17T06:05:37;102906.78;;;18.33;74.33
69528;BME280;57136;51.986;4.468;2022-07-17T06:08:02;102915.69;;;18.50;71.92
69528;BME280;57136;51.986;4.468;2022-07-17T06:10:28;102921.41;;;17.84;73.73
69528;BME280;57136;51.986;4.468;2022-07-17T06:12:54;102923.44;;;18.19;74.97
69528;BME280;57136;51.986;4.468;2022-07-17T06:15:20;102925.13;;;18.11;73.01
69528;BME280;57136;51.986;4.468;2022-07-17T06:17:46;102921.84;;;18.52;72.71
69528;BME280;57136;51.986;4.468;2022-07-17T06:20:13;102926.31;;;18.74;69.50
69528;BME280;57136;51.986;4.468;2022-07-17T06:22:39;102925.38;;;18.51;71.50
69528;BME280;57136;51.986;4.468;2022-07-17T06:25:05;102929.53;;;18.14;70.01
69528;BME280;57136;51.986;4.468;2022-07-17T06:27:30;102935.06;;;18.52;70.72
69528;BME280;57136;51.986;4.468;2022-07-17T06:29:56;102938.69;;;18.89;70.82
69528;BME280;57136;51.986;4.468;2022-07-17T06:32:21;102944.53;;;18.19;69.32
69528;BME280;57136;51.986;4.468;2022-07-17T06:34:48;102941.25;;;18.62;68.63
69528;BME280;57136;51.986;4.468;2022-07-17T06:37:13;102947.50;;;18.86;68.75
69528;BME280;57136;51.986;4.468;2022-07-17T06:39:38;102943.94;;;18.76;67.84
69528;BME280;57136;51.986;4.468;2022-07-17T06:42:04;102953.75;;;19.10;68.74
69528;BME280;57136;51.986;4.468;2022-07-17T06:44:29;102959.13;;;19.67;66.10
69528;BME280;57136;51.986;4.468;2022-07-17T06:46:54;102956.41;;;19.02;66.31
69528;BME280;57136;51.986;4.468;2022-07-17T06:49:20;102954.69;;;19.37;68.22
69528;BME280;57136;51.986;4.468;2022-07-17T06:51:45;102953.84;;;19.80;68.00
69528;BME280;57136;51.986;4.468;2022-07-17T06:54:15;102955.63;;;19.90;65.78
69528;BME280;57136;51.986;4.468;2022-07-17T06:56:41;102959.13;;;19.98;62.49
69528;BME280;57136;51.986;4.468;2022-07-17T06:59:06;102959.13;;;19.47;64.56
69528;BME280;57136;51.986;4.468;2022-07-17T07:01:33;102954.72;;;19.71;64.73
69528;BME280;57136;51.986;4.468;2022-07-17T07:03:59;102952.03;;;20.30;61.25
69528;BME280;57136;51.986;4.468;2022-07-17T07:06:25;102952.81;;;20.55;62.82
69528;BME280;57136;51.986;4.468;2022-07-17T07:08:50;102957.22;;;20.59;59.41
69528;BME280;57136;51.986;4.468;2022-07-17T07:11:15;102951.94;;;20.53;60.27
69528;BME280;57136;51.986;4.468;2022-07-17T07:13:41;102958.88;;;20.88;60.33
69528;BME280;57136;51.986;4.468;2022-07-17T07:16:06;102966.16;;;20.23;60.90
69528;BME280;57136;51.986;4.468;2022-07-17T07:18:32;102960.88;;;19.50;64.56
69528;BME280;57136;51.986;4.468;2022-07-17T07:20:57;102955.59;;;19.96;64.16
69528;BME280;57136;51.986;4.468;2022-07-17T07:23:22;102956.50;;;20.06;63.06
69528;BME280;57136;51.986;4.468;2022-07-17T07:25:48;102951.00;;;20.68;60.59
69528;BME280;57136;51.986;4.468;2022-07-17T07:28:13;102951.75;;;21.01;59.61
69528;BME280;57136;51.986;4.468;2022-07-17T07:30:38;102948.41;;;20.53;59.93
69528;BME280;57136;51.986;4.468;2022-07-17T07:33:07;102945.84;;;20.31;59.90
69528;BME280;57136;51.986;4.468;2022-07-17T07:35:40;102945.91;;;20.06;63.96
69528;BME280;57136;51.986;4.468;2022-07-17T07:38:09;102939.63;;;20.43;62.57
69528;BME280;57136;51.986;4.468;2022-07-17T07:40:34;102941.28;;;20.72;61.66
69528;BME280;57136;51.986;4.468;2022-07-17T07:43:00;102946.78;;;19.99;60.36
69528;BME280;57136;51.986;4.468;2022-07-17T07:45:26;102935.19;;;20.43;61.44
69528;BME280;57136;51.986;4.468;2022-07-17T07:47:55;102940.13;;;21.25;59.16
69528;BME280;57136;51.986;4.468;2022-07-17T07:50:24;102939.84;;;21.67;55.80
69528;BME280;57136;51.986;4.468;2022-07-17T07:52:51;102941.97;;;21.16;56.39
69528;BME280;57136;51.986;4.468;2022-07-17T07:55:16;102934.13;;;20.95;53.86
69528;BME280;57136;51.986;4.468;2022-07-17T07:57:43;102934.63;;;21.49;54.28
69528;BME280;57136;51.986;4.468;2022-07-17T08:00:10;102938.16;;;21.48;51.68
69528;BME280;57136;51.986;4.468;2022-07-17T08:02:36;102930.88;;;21.79;55.74
69528;BME280;57136;51.986;4.468;2022-07-17T08:05:01;102940.88;;;21.45;53.29
69528;BME280;57136;51.986;4.468;2022-07-17T08:07:28;102938.94;;;21.61;52.62
69528;BME280;57136;51.986;4.468;2022-07-17T08:09:53;102936.78;;;22.09;55.11
69528;BME280;57136;51.986;4.468;2022-07-17T08:12:20;102929.66;;;22.10;50.42
69528;BME280;57136;51.986;4.468;2022-07-17T08:14:45;102935.41;;;21.65;52.76
69528;BME280;57136;51.986;4.468;2022-07-17T08:17:11;102928.34;;;22.51;53.02
69528;BME280;57136;51.986;4.468;2022-07-17T08:19:36;102933.97;;;22.22;48.16
69528;BME280;57136;51.986;4.468;2022-07-17T08:22:01;102927.28;;;21.87;51.39
69528;BME280;57136;51.986;4.468;2022-07-17T08:24:26;102926.44;;;21.81;51.01
69528;BME280;57136;51.986;4.468;2022-07-17T08:26:52;102934.97;;;22.10;49.69
69528;BME280;57136;51.986;4.468;2022-07-17T08:29:17;102930.97;;;21.61;50.29
69528;BME280;57136;51.986;4.468;2022-07-17T08:31:42;102920.56;;;22.34;50.97
69528;BME280;57136;51.986;4.468;2022-07-17T08:34:08;102930.16;;;22.48;50.05
69528;BME280;57136;51.986;4.468;2022-07-17T08:36:33;102935.81;;;23.49;51.06
69528;BME280;57136;51.986;4.468;2022-07-17T08:38:59;102920.97;;;24.33;47.07
69528;BME280;57136;51.986;4.468;2022-07-17T08:41:25;102919.72;;;24.94;47.88
69528;BME280;57136;51.986;4.468;2022-07-17T08:43:51;102923.34;;;25.97;42.22
69528;BME280;57136;51.986;4.468;2022-07-17T08:46:23;102922.91;;;25.08;41.99
69528;BME280;57136;51.986;4.468;2022-07-17T08:48:53;102914.06;;;25.06;45.06
69528;BME280;57136;51.986;4.468;2022-07-17T08:51:22;102920.31;;;25.43;42.97
69528;BME280;57136;51.986;4.468;2022-07-17T08:53:48;102915.13;;;25.37;42.99
69528;BME280;57136;51.986;4.468;2022-07-17T08:56:14;102913.94;;;26.48;44.97
69528;BME280;57136;51.986;4.468;2022-07-17T08:58:39;102909.69;;;26.41;39.47
69528;BME280;57136;51.986;4.468;2022-07-17T09:01:05;102912.97;;;27.09;39.14
69528;BME280;57136;51.986;4.468;2022-07-17T09:03:30;102916.31;;;26.57;42.98
69528;BME280;57136;51.986;4.468;2022-07-17T09:05:56;102909.53;;;25.82;38.14
69528;BME280;57136;51.986;4.468;2022-07-17T09:08:23;102912.75;;;27.15;39.56
69528;BME280;57136;51.986;4.468;2022-07-17T09:10:50;102912.50;;;26.03;37.49
69528;BME280;57136;51.986;4.468;2022-07-17T09:13:27;102911.09;;;26.83;38.94
69528;BME280;57136;51.986;4.468;2022-07-17T09:16:07;102915.97;;;27.79;38.08
69528;BME280;57136;51.986;4.468;2022-07-17T09:18:46;102904.69;;;28.20;36.30
69528;BME280;57136;51.986;4.468;2022-07-17T09:21:20;102908.78;;;28.76;35.60
69528;BME280;57136;51.986;4.468;2022-07-17T09:24:06;102915.19;;;27.75;35.42
69528;BME280;57136;51.986;4.468;2022-07-17T09:26:36;102911.53;;;27.52;36.45
69528;BME280;57136;51.986;4.468;2022-07-17T09:29:08;102899.03;;;26.39;35.43
69528;BME280;57136;51.986;4.468;2022-07-17T09:31:36;102904.75;;;25.94;38.02
69528;BME280;57136;51.986;4.468;2022-07-17T09:34:02;102901.44;;;25.15;38.35
69528;BME280;57136;51.986;4.468;2022-07-17T09:36:27;102901.41;;;25.52;39.12
69528;BME280;57136;51.986;4.468;2022-07-17T09:38:54;102895.59;;;24.98;38.96
69528;BME280;57136;51.986;4.468;2022-07-17T09:41:20;102899.31;;;24.91;39.97
69528;BME280;57136;51.986;4.468;2022-07-17T09:43:53;102903.59;;;25.71;40.95
69528;BME280;57136;51.986;4.468;2022-07-17T09:46:21;102900.75;;;26.09;41.03
69528;BME280;57136;51.986;4.468;2022-07-17T09:48:53;102891.09;;;26.36;39.18
69528;BME280;57136;51.986;4.468;2022-07-17T09:51:28;102900.22;;;26.89;39.52
69528;BME280;57136;51.986;4.468;2022-07-17T09:53:58;102899.50;;;27.64;40.10
69528;BME280;57136;51.986;4.468;2022-07-17T09:56:26;102896.00;;;27.09;37.20
69528;BME280;57136;51.986;4.468;2022-07-17T09:59:14;102902.66;;;26.67;36.99
69528;BME280;57136;51.986;4.468;2022-07-17T10:01:40;102906.25;;;26.04;35.90
69528;BME280;57136;51.986;4.468;2022-07-17T10:04:06;102897.44;;;26.92;37.39
69528;BME280;57136;51.986;4.468;2022-07-17T10:06:32;102905.03;;;27.85;37.18
69528;BME280;57136;51.986;4.468;2022-07-17T10:08:58;102910.28;;;28.14;41.10
69528;BME280;57136;51.986;4.468;2022-07-17T10:11:27;102917.38;;;27.64;35.40
69528;BME280;57136;51.986;4.468;2022-07-17T10:13:56;102915.06;;;26.99;36.44
69528;BME280;57136;51.986;4.468;2022-07-17T10:16:26;102906.16;;;29.83;30.92
69528;BME280;57136;51.986;4.468;2022-07-17T10:18:51;102913.94;;;30.48;30.09
69528;BME280;57136;51.986;4.468;2022-07-17T10:21:21;102906.34;;;29.57;35.42
69528;BME280;57136;51.986;4.468;2022-07-17T10:24:05;102905.84;;;28.36;34.63
69528;BME280;57136;51.986;4.468;2022-07-17T10:29:07;102912.19;;;27.85;33.88
69528;BME280;57136;51.986;4.468;2022-07-17T10:31:34;102913.69;;;27.41;34.57
69528;BME280;57136;51.986;4.468;2022-07-17T10:34:04;102918.22;;;27.66;34.14
69528;BME280;57136;51.986;4.468;2022-07-17T10:38:58;102920.69;;;26.90;35.46
69528;BME280;57136;51.986;4.468;2022-07-17T10:41:35;102929.03;;;26.49;34.95
69528;BME280;57136;51.986;4.468;2022-07-17T10:44:00;102924.03;;;26.97;34.26
69528;BME280;57136;51.986;4.468;2022-07-17T10:46:25;102922.53;;;27.43;33.89
69528;BME280;57136;51.986;4.468;2022-07-17T10:48:52;102917.50;;;28.11;33.15
69528;BME280;57136;51.986;4.468;2022-07-17T10:51:18;102915.63;;;27.88;35.00
69528;BME280;57136;51.986;4.468;2022-07-17T10:53:43;102910.16;;;28.40;35.61
69528;BME280;57136;51.986;4.468;2022-07-17T10:56:09;102905.41;;;29.38;33.82
69528;BME280;57136;51.986;4.468;2022-07-17T10:58:41;102917.22;;;29.54;33.46
69528;BME280;57136;51.986;4.468;2022-07-17T11:03:51;102910.56;;;28.04;33.84
69528;BME280;57136;51.986;4.468;2022-07-17T11:06:25;102914.50;;;27.43;33.43
69528;BME280;57136;51.986;4.468;2022-07-17T11:08:54;102910.75;;;26.94;34.95
69528;BME280;57136;51.986;4.468;2022-07-17T11:11:23;102912.09;;;26.78;35.07
69528;BME280;57136;51.986;4.468;2022-07-17T11:13:49;102909.34;;;27.37;35.77
69528;BME280;57136;51.986;4.468;2022-07-17T11:16:28;102898.19;;;26.67;34.49
69528;BME280;57136;51.986;4.468;2022-07-17T11:18:54;102899.94;;;27.52;35.23
69528;BME280;57136;51.986;4.468;2022-07-17T11:21:19;102894.78;;;27.19;34.83
69528;BME280;57136;51.986;4.468;2022-07-17T11:23:53;102908.75;;;26.72;36.02
69528;BME280;57136;51.986;4.468;2022-07-17T11:26:22;102906.22;;;26.37;35.41
69528;BME280;57136;51.986;4.468;2022-07-17T11:28:49;102906.94;;;26.12;37.03
69528;BME280;57136;51.986;4.468;2022-07-17T11:36:32;102909.28;;;27.65;37.46
69528;BME280;57136;51.986;4.468;2022-07-17T11:39:02;102902.91;;;27.16;36.30
69528;BME280;57136;51.986;4.468;2022-07-17T11:41:33;102897.66;;;27.66;36.22
69528;BME280;57136;51.986;4.468;2022-07-17T11:43:58;102900.66;;;27.83;36.90
69528;BME280;57136;51.986;4.468;2022-07-17T11:46:25;102901.88;;;27.74;34.72
69528;BME280;57136;51.986;4.468;2022-07-17T11:48:50;102898.31;;;26.92;35.91
69528;BME280;57136;51.986;4.468;2022-07-17T11:51:16;102910.06;;;26.58;35.10
69528;BME280;57136;51.986;4.468;2022-07-17T11:53:43;102907.91;;;27.00;36.50
69528;BME280;57136;51.986;4.468;2022-07-17T11:56:19;102904.53;;;27.74;35.01
69528;BME280;57136;51.986;4.468;2022-07-17T11:58:46;102908.59;;;27.86;34.44
69528;BME280;57136;51.986;4.468;2022-07-17T12:01:13;102907.28;;;26.61;35.84
69528;BME280;57136;51.986;4.468;2022-07-17T12:03:39;102904.38;;;26.39;35.90
69528;BME280;57136;51.986;4.468;2022-07-17T12:06:04;102914.72;;;26.80;36.73
69528;BME280;57136;51.986;4.468;2022-07-17T12:08:30;102896.69;;;26.28;37.33
69528;BME280;57136;51.986;4.468;2022-07-17T12:11:04;102896.22;;;27.02;36.57
69528;BME280;57136;51.986;4.468;2022-07-17T12:13:42;102899.56;;;27.36;36.35
69528;BME280;57136;51.986;4.468;2022-07-17T12:16:21;102893.56;;;27.02;34.98
69528;BME280;57136;51.986;4.468;2022-07-17T12:18:58;102891.56;;;27.34;36.25
69528;BME280;57136;51.986;4.468;2022-07-17T12:21:25;102881.44;;;26.90;35.63
69528;BME280;57136;51.986;4.468;2022-07-17T12:24:05;102879.09;;;27.86;35.29
69528;BME280;57136;51.986;4.468;2022-07-17T12:26:32;102878.63;;;27.49;34.55
69528;BME280;57136;51.986;4.468;2022-07-17T12:28:58;102862.28;;;28.06;36.16
69528;BME280;57136;51.986;4.468;2022-07-17T12:31:24;102870.63;;;27.47;36.17
69528;BME280;57136;51.986;4.468;2022-07-17T12:33:52;102863.81;;;26.55;35.45
69528;BME280;57136;51.986;4.468;2022-07-17T12:36:19;102864.47;;;27.45;36.18
69528;BME280;57136;51.986;4.468;2022-07-17T12:38:45;102868.66;;;27.54;34.83
69528;BME280;57136;51.986;4.468;2022-07-17T12:41:10;102864.50;;;26.61;37.23
69528;BME280;57136;51.986;4.468;2022-07-17T12:43:36;102860.88;;;26.62;37.63
69528;BME280;57136;51.986;4.468;2022-07-17T12:46:01;102864.69;;;27.37;36.44
69528;BME280;57136;51.986;4.468;2022-07-17T12:48:27;102860.44;;;27.59;34.42
69528;BME280;57136;51.986;4.468;2022-07-17T12:50:52;102857.03;;;27.79;35.05
69528;BME280;57136;51.986;4.468;2022-07-17T12:53:17;102854.56;;;27.73;35.69
69528;BME280;57136;51.986;4.468;2022-07-17T12:55:43;102853.25;;;26.78;36.53
69528;BME280;57136;51.986;4.468;2022-07-17T12:58:08;102848.44;;;27.44;35.06